sensor_id;sensor_type;location;lat;lon;timestamp;P1;durP1;ratioP1;P2;durP2;ratioP2
2750;SDS011;1383;48.362;10.908;2023-05-07T00:01:49;6.03;;;4.50;;
2750;SDS011;1383;48.362;10.908;2023-05-07T00:04:15;15.03;;;5.80;;
2750;SDS011;1383;48.362;10.908;2023-05-07T00:06:42;5.73;;;5.20;;
2750;SDS011;1383;48.362;10.908;2023-05-07T00:09:09;5.63;;;5.17;;
2750;SDS011;1383;48.362;10.908;2023-05-07T00:11:37;5.43;;;4.93;;
2750;SDS011;1383;48.362;10.908;2023-05-07T00:14:03;5.20;;;4.70;;
2750;SDS011;1383;48.362;10.908;2023-05-07T00:16:30;5.80;;;5.40;;
2750;SDS011;1383;48.362;10.908;2023-05-07T00:18:57;7.90;;;5.70;;
2750;SDS011;1383;48.362;10.908;2023-05-07T00:21:24;8.23;;;5.23;;
2750;SDS011;1383;48.362;10.908;2023-05-07T00:23:53;6.03;;;5.27;;
2750;SDS011;1383;48.362;10.908;2023-05-07T00:26:20;5.87;;;4.73;;
2750;SDS011;1383;48.362;10.908;2023-05-07T00:28:47;6.30;;;5.70;;
2750;SDS011;1383;48.362;10.908;2023-05-07T00:31:14;5.93;;;4.90;;
2750;SDS011;1383;48.362;10.908;2023-05-07T00:33:41;7.37;;;5.90;;
2750;SDS011;1383;48.362;10.908;2023-05-07T00:36:08;6.70;;;5.60;;
2750;SDS011;1383;48.362;10.908;2023-05-07T00:38:35;6.40;;;5.80;;
2750;SDS011;1383;48.362;10.908;2023-05-07T00:41:02;5.90;;;5.40;;
2750;SDS011;1383;48.362;10.908;2023-05-07T00:43:29;5.87;;;5.27;;
2750;SDS011;1383;48.362;10.908;2023-05-07T00:45:56;6.97;;;5.63;;
2750;SDS011;1383;48.362;10.908;2023-05-07T00:48:23;6.73;;;5.67;;
2750;SDS011;1383;48.362;10.908;2023-05-07T00:50:51;6.50;;;5.37;;
2750;SDS011;1383;48.362;10.908;2023-05-07T00:53:18;6.10;;;5.60;;
2750;SDS011;1383;48.362;10.908;2023-05-07T00:55:45;8.30;;;6.57;;
2750;SDS011;1383;48.362;10.908;2023-05-07T00:58:12;7.47;;;6.80;;
2750;SDS011;1383;48.362;10.908;2023-05-07T01:00:39;8.70;;;7.07;;
2750;SDS011;1383;48.362;10.908;2023-05-07T01:03:06;9.67;;;8.63;;
2750;SDS011;1383;48.362;10.908;2023-05-07T01:05:34;10.20;;;7.90;;
2750;SDS011;1383;48.362;10.908;2023-05-07T01:08:01;7.43;;;6.70;;
2750;SDS011;1383;48.362;10.908;2023-05-07T01:10:30;7.70;;;6.87;;
2750;SDS011;1383;48.362;10.908;2023-05-07T01:12:57;7.57;;;6.43;;
2750;SDS011;1383;48.362;10.908;2023-05-07T01:15:26;7.57;;;6.80;;
2750;SDS011;1383;48.362;10.908;2023-05-07T01:17:53;8.97;;;7.33;;
2750;SDS011;1383;48.362;10.908;2023-05-07T01:20:20;7.67;;;6.80;;
2750;SDS011;1383;48.362;10.908;2023-05-07T01:22:47;8.20;;;6.53;;
2750;SDS011;1383;48.362;10.908;2023-05-07T01:25:14;7.73;;;6.20;;
2750;SDS011;1383;48.362;10.908;2023-05-07T01:27:42;7.20;;;6.20;;
2750;SDS011;1383;48.362;10.908;2023-05-07T01:30:09;6.03;;;5.50;;
2750;SDS011;1383;48.362;10.908;2023-05-07T01:35:07;7.63;;;6.50;;
2750;SDS011;1383;48.362;10.908;2023-05-07T01:37:37;7.53;;;6.77;;
2750;SDS011;1383;48.362;10.908;2023-05-07T01:40:05;6.80;;;6.20;;
2750;SDS011;1383;48.362;10.908;2023-05-07T01:42:33;6.73;;;6.00;;
2750;SDS011;1383;48.362;10.908;2023-05-07T01:45:00;6.30;;;5.60;;
2750;SDS011;1383;48.362;10.908;2023-05-07T01:47:27;6.93;;;6.20;;
2750;SDS011;1383;48.362;10.908;2023-05-07T01:49:55;7.70;;;5.87;;
2750;SDS011;1383;48.362;10.908;2023-05-07T01:52:23;6.70;;;5.97;;
2750;SDS011;1383;48.362;10.908;2023-05-07T01:54:51;7.90;;;6.37;;
2750;SDS011;1383;48.362;10.908;2023-05-07T01:57:18;6.80;;;6.20;;
2750;SDS011;1383;48.362;10.908;2023-05-07T01:59:44;7.03;;;5.40;;
2750;SDS011;1383;48.362;10.908;2023-05-07T02:02:11;8.37;;;5.77;;
2750;SDS011;1383;48.362;10.908;2023-05-07T02:04:38;8.87;;;6.50;;
2750;SDS011;1383;48.362;10.908;2023-05-07T02:07:05;6.50;;;5.90;;
2750;SDS011;1383;48.362;10.908;2023-05-07T02:09:32;7.00;;;6.20;;
2750;SDS011;1383;48.362;10.908;2023-05-07T02:11:58;6.10;;;5.50;;
2750;SDS011;1383;48.362;10.908;2023-05-07T02:14:25;7.90;;;6.83;;
2750;SDS011;1383;48.362;10.908;2023-05-07T02:16:52;8.13;;;5.30;;
2750;SDS011;1383;48.362;10.908;2023-05-07T02:19:19;5.67;;;5.17;;
2750;SDS011;1383;48.362;10.908;2023-05-07T02:21:47;6.27;;;5.67;;
2750;SDS011;1383;48.362;10.908;2023-05-07T02:24:14;7.47;;;5.77;;
2750;SDS011;1383;48.362;10.908;2023-05-07T02:26:41;8.77;;;5.57;;
2750;SDS011;1383;48.362;10.908;2023-05-07T02:29:07;6.10;;;5.50;;
2750;SDS011;1383;48.362;10.908;2023-05-07T02:31:34;6.50;;;5.80;;
2750;SDS011;1383;48.362;10.908;2023-05-07T02:34:01;7.73;;;6.17;;
2750;SDS011;1383;48.362;10.908;2023-05-07T02:36:28;6.80;;;5.30;;
2750;SDS011;1383;48.362;10.908;2023-05-07T02:38:55;5.87;;;5.37;;
2750;SDS011;1383;48.362;10.908;2023-05-07T02:41:22;7.10;;;6.40;;
2750;SDS011;1383;48.362;10.908;2023-05-07T02:43:48;7.90;;;6.80;;
2750;SDS011;1383;48.362;10.908;2023-05-07T02:46:15;7.10;;;6.40;;
2750;SDS011;1383;48.362;10.908;2023-05-07T02:48:42;9.70;;;5.63;;
2750;SDS011;1383;48.362;10.908;2023-05-07T02:51:09;7.10;;;6.27;;
2750;SDS011;1383;48.362;10.908;2023-05-07T02:53:36;10.90;;;6.90;;
2750;SDS011;1383;48.362;10.908;2023-05-07T02:56:02;6.30;;;5.80;;
2750;SDS011;1383;48.362;10.908;2023-05-07T02:58:29;10.10;;;6.27;;
2750;SDS011;1383;48.362;10.908;2023-05-07T03:00:56;6.80;;;6.20;;
2750;SDS011;1383;48.362;10.908;2023-05-07T03:03:23;6.30;;;5.70;;
2750;SDS011;1383;48.362;10.908;2023-05-07T03:05:50;13.60;;;6.93;;
2750;SDS011;1383;48.362;10.908;2023-05-07T03:08:17;7.47;;;6.73;;
2750;SDS011;1383;48.362;10.908;2023-05-07T03:10:44;7.80;;;7.03;;
2750;SDS011;1383;48.362;10.908;2023-05-07T03:13:11;7.20;;;6.30;;
2750;SDS011;1383;48.362;10.908;2023-05-07T03:15:38;6.70;;;6.10;;
2750;SDS011;1383;48.362;10.908;2023-05-07T03:18:04;8.80;;;6.90;;
2750;SDS011;1383;48.362;10.908;2023-05-07T03:20:31;6.90;;;6.20;;
2750;SDS011;1383;48.362;10.908;2023-05-07T03:22:58;9.37;;;6.70;;
2750;SDS011;1383;48.362;10.908;2023-05-07T03:25:25;7.17;;;6.50;;
2750;SDS011;1383;48.362;10.908;2023-05-07T03:27:52;5.63;;;5.13;;
2750;SDS011;1383;48.362;10.908;2023-05-07T03:30:19;7.50;;;6.27;;
2750;SDS011;1383;48.362;10.908;2023-05-07T03:32:46;6.73;;;6.13;;
2750;SDS011;1383;48.362;10.908;2023-05-07T03:35:13;8.77;;;6.30;;
2750;SDS011;1383;48.362;10.908;2023-05-07T03:37:40;6.60;;;6.00;;
2750;SDS011;1383;48.362;10.908;2023-05-07T03:40:07;7.10;;;6.17;;
2750;SDS011;1383;48.362;10.908;2023-05-07T03:42:37;6.93;;;6.23;;
2750;SDS011;1383;48.362;10.908;2023-05-07T03:45:04;6.30;;;5.70;;
2750;SDS011;1383;48.362;10.908;2023-05-07T03:47:31;9.90;;;6.37;;
2750;SDS011;1383;48.362;10.908;2023-05-07T03:49:58;7.00;;;6.30;;
2750;SDS011;1383;48.362;10.908;2023-05-07T03:52:25;6.57;;;5.97;;
2750;SDS011;1383;48.362;10.908;2023-05-07T03:54:52;8.50;;;6.20;;
2750;SDS011;1383;48.362;10.908;2023-05-07T03:57:19;6.03;;;5.53;;
2750;SDS011;1383;48.362;10.908;2023-05-07T03:59:46;6.57;;;5.87;;
2750;SDS011;1383;48.362;10.908;2023-05-07T04:02:13;7.93;;;6.30;;
2750;SDS011;1383;48.362;10.908;2023-05-07T04:04:40;6.73;;;5.93;;
2750;SDS011;1383;48.362;10.908;2023-05-07T04:07:07;6.33;;;5.73;;
2750;SDS011;1383;48.362;10.908;2023-05-07T04:09:34;6.83;;;6.23;;
2750;SDS011;1383;48.362;10.908;2023-05-07T04:12:00;7.53;;;6.83;;
2750;SDS011;1383;48.362;10.908;2023-05-07T04:14:27;7.57;;;6.80;;
2750;SDS011;1383;48.362;10.908;2023-05-07T04:16:54;6.90;;;6.30;;
2750;SDS011;1383;48.362;10.908;2023-05-07T04:19:21;7.27;;;6.50;;
2750;SDS011;1383;48.362;10.908;2023-05-07T04:21:48;7.40;;;6.67;;
2750;SDS011;1383;48.362;10.908;2023-05-07T04:24:15;7.10;;;6.23;;
2750;SDS011;1383;48.362;10.908;2023-05-07T04:26:42;8.37;;;6.77;;
2750;SDS011;1383;48.362;10.908;2023-05-07T04:29:09;6.83;;;6.13;;
2750;SDS011;1383;48.362;10.908;2023-05-07T04:31:36;6.87;;;6.20;;
2750;SDS011;1383;48.362;10.908;2023-05-07T04:34:03;9.20;;;6.70;;
2750;SDS011;1383;48.362;10.908;2023-05-07T04:36:30;6.97;;;6.10;;
2750;SDS011;1383;48.362;10.908;2023-05-07T04:38:56;7.67;;;6.90;;
2750;SDS011;1383;48.362;10.908;2023-05-07T04:41:23;7.53;;;6.70;;
2750;SDS011;1383;48.362;10.908;2023-05-07T04:43:51;6.97;;;6.37;;
2750;SDS011;1383;48.362;10.908;2023-05-07T04:46:17;7.43;;;6.70;;
2750;SDS011;1383;48.362;10.908;2023-05-07T04:48:44;6.50;;;5.80;;
2750;SDS011;1383;48.362;10.908;2023-05-07T04:51:12;8.13;;;7.43;;
2750;SDS011;1383;48.362;10.908;2023-05-07T04:53:39;8.07;;;6.63;;
2750;SDS011;1383;48.362;10.908;2023-05-07T04:56:06;8.00;;;6.60;;
2750;SDS011;1383;48.362;10.908;2023-05-07T04:58:33;5.80;;;5.20;;
2750;SDS011;1383;48.362;10.908;2023-05-07T05:01:00;6.97;;;6.27;;
2750;SDS011;1383;48.362;10.908;2023-05-07T05:03:27;7.70;;;6.70;;
2750;SDS011;1383;48.362;10.908;2023-05-07T05:05:54;6.53;;;5.93;;
2750;SDS011;1383;48.362;10.908;2023-05-07T05:08:21;10.53;;;5.80;;
2750;SDS011;1383;48.362;10.908;2023-05-07T05:10:48;6.80;;;6.10;;
2750;SDS011;1383;48.362;10.908;2023-05-07T05:13:16;6.57;;;5.97;;
2750;SDS011;1383;48.362;10.908;2023-05-07T05:15:43;6.90;;;6.20;;
2750;SDS011;1383;48.362;10.908;2023-05-07T05:18:10;6.33;;;5.17;;
2750;SDS011;1383;48.362;10.908;2023-05-07T05:20:36;6.10;;;5.50;;
2750;SDS011;1383;48.362;10.908;2023-05-07T05:23:03;7.10;;;6.17;;
2750;SDS011;1383;48.362;10.908;2023-05-07T05:25:30;9.43;;;6.70;;
2750;SDS011;1383;48.362;10.908;2023-05-07T05:27:57;6.47;;;5.87;;
2750;SDS011;1383;48.362;10.908;2023-05-07T05:30:23;6.60;;;6.00;;
2750;SDS011;1383;48.362;10.908;2023-05-07T05:32:50;5.83;;;5.27;;
2750;SDS011;1383;48.362;10.908;2023-05-07T05:35:18;7.57;;;6.53;;
2750;SDS011;1383;48.362;10.908;2023-05-07T05:37:44;7.97;;;6.10;;
2750;SDS011;1383;48.362;10.908;2023-05-07T05:40:11;6.50;;;5.90;;
2750;SDS011;1383;48.362;10.908;2023-05-07T05:42:38;6.70;;;6.00;;
2750;SDS011;1383;48.362;10.908;2023-05-07T05:45:05;7.30;;;6.37;;
2750;SDS011;1383;48.362;10.908;2023-05-07T05:47:33;7.13;;;6.43;;
2750;SDS011;1383;48.362;10.908;2023-05-07T05:49:59;7.53;;;6.07;;
2750;SDS011;1383;48.362;10.908;2023-05-07T05:52:26;7.30;;;6.33;;
2750;SDS011;1383;48.362;10.908;2023-05-07T05:54:53;7.07;;;6.37;;
2750;SDS011;1383;48.362;10.908;2023-05-07T05:57:20;6.63;;;6.03;;
2750;SDS011;1383;48.362;10.908;2023-05-07T05:59:47;7.03;;;6.33;;
2750;SDS011;1383;48.362;10.908;2023-05-07T06:02:14;7.17;;;6.47;;
2750;SDS011;1383;48.362;10.908;2023-05-07T06:04:41;7.27;;;6.63;;
2750;SDS011;1383;48.362;10.908;2023-05-07T06:07:09;6.00;;;5.50;;
2750;SDS011;1383;48.362;10.908;2023-05-07T06:09:35;9.90;;;6.97;;
2750;SDS011;1383;48.362;10.908;2023-05-07T06:12:02;6.90;;;6.27;;
2750;SDS011;1383;48.362;10.908;2023-05-07T06:14:29;6.80;;;6.10;;
2750;SDS011;1383;48.362;10.908;2023-05-07T06:16:56;6.50;;;5.90;;
2750;SDS011;1383;48.362;10.908;2023-05-07T06:19:23;6.53;;;6.03;;
2750;SDS011;1383;48.362;10.908;2023-05-07T06:21:52;6.37;;;5.87;;
2750;SDS011;1383;48.362;10.908;2023-05-07T06:24:19;6.67;;;6.03;;
2750;SDS011;1383;48.362;10.908;2023-05-07T06:26:46;6.97;;;6.33;;
2750;SDS011;1383;48.362;10.908;2023-05-07T06:29:13;6.43;;;5.83;;
2750;SDS011;1383;48.362;10.908;2023-05-07T06:31:40;5.93;;;5.23;;
2750;SDS011;1383;48.362;10.908;2023-05-07T06:34:07;7.13;;;6.47;;
2750;SDS011;1383;48.362;10.908;2023-05-07T06:36:34;8.70;;;6.40;;
2750;SDS011;1383;48.362;10.908;2023-05-07T06:39:01;6.37;;;5.87;;
2750;SDS011;1383;48.362;10.908;2023-05-07T06:41:28;7.97;;;6.63;;
2750;SDS011;1383;48.362;10.908;2023-05-07T06:43:55;7.27;;;6.57;;
2750;SDS011;1383;48.362;10.908;2023-05-07T06:46:22;6.80;;;6.20;;
2750;SDS011;1383;48.362;10.908;2023-05-07T06:48:49;6.97;;;6.37;;
2750;SDS011;1383;48.362;10.908;2023-05-07T06:51:15;5.73;;;5.10;;
2750;SDS011;1383;48.362;10.908;2023-05-07T06:53:42;7.50;;;6.80;;
2750;SDS011;1383;48.362;10.908;2023-05-07T06:56:09;6.10;;;5.60;;
2750;SDS011;1383;48.362;10.908;2023-05-07T06:58:36;6.80;;;6.27;;
2750;SDS011;1383;48.362;10.908;2023-05-07T07:01:03;7.77;;;7.07;;
2750;SDS011;1383;48.362;10.908;2023-05-07T07:03:30;11.30;;;10.40;;
2750;SDS011;1383;48.362;10.908;2023-05-07T07:05:57;7.07;;;6.47;;
2750;SDS011;1383;48.362;10.908;2023-05-07T07:08:24;7.13;;;6.53;;
2750;SDS011;1383;48.362;10.908;2023-05-07T07:10:50;9.50;;;6.97;;
2750;SDS011;1383;48.362;10.908;2023-05-07T07:13:17;7.70;;;7.03;;
2750;SDS011;1383;48.362;10.908;2023-05-07T07:15:45;6.93;;;6.30;;
2750;SDS011;1383;48.362;10.908;2023-05-07T07:18:12;6.70;;;5.47;;
2750;SDS011;1383;48.362;10.908;2023-05-07T07:20:39;7.53;;;6.47;;
2750;SDS011;1383;48.362;10.908;2023-05-07T07:23:06;6.43;;;5.93;;
2750;SDS011;1383;48.362;10.908;2023-05-07T07:25:33;9.33;;;8.33;;
2750;SDS011;1383;48.362;10.908;2023-05-07T07:27:59;7.53;;;6.60;;
2750;SDS011;1383;48.362;10.908;2023-05-07T07:30:26;7.13;;;6.53;;
2750;SDS011;1383;48.362;10.908;2023-05-07T07:32:54;7.20;;;6.60;;
2750;SDS011;1383;48.362;10.908;2023-05-07T07:35:24;6.40;;;5.90;;
2750;SDS011;1383;48.362;10.908;2023-05-07T07:37:51;6.63;;;6.03;;
2750;SDS011;1383;48.362;10.908;2023-05-07T07:40:17;7.63;;;7.00;;
2750;SDS011;1383;48.362;10.908;2023-05-07T07:42:44;7.77;;;7.07;;
2750;SDS011;1383;48.362;10.908;2023-05-07T07:45:11;7.37;;;6.67;;
2750;SDS011;1383;48.362;10.908;2023-05-07T07:47:39;7.07;;;6.47;;
2750;SDS011;1383;48.362;10.908;2023-05-07T07:50:06;7.40;;;6.80;;
2750;SDS011;1383;48.362;10.908;2023-05-07T07:52:34;7.33;;;6.83;;
2750;SDS011;1383;48.362;10.908;2023-05-07T07:55:01;7.63;;;6.83;;
2750;SDS011;1383;48.362;10.908;2023-05-07T07:57:28;9.70;;;6.90;;
2750;SDS011;1383;48.362;10.908;2023-05-07T07:59:55;7.10;;;6.53;;
2750;SDS011;1383;48.362;10.908;2023-05-07T08:02:22;8.27;;;7.57;;
2750;SDS011;1383;48.362;10.908;2023-05-07T08:04:49;7.70;;;6.80;;
2750;SDS011;1383;48.362;10.908;2023-05-07T08:07:16;7.17;;;6.63;;
2750;SDS011;1383;48.362;10.908;2023-05-07T08:09:44;6.80;;;5.80;;
2750;SDS011;1383;48.362;10.908;2023-05-07T08:12:11;6.70;;;5.77;;
2750;SDS011;1383;48.362;10.908;2023-05-07T08:14:38;7.10;;;6.50;;
2750;SDS011;1383;48.362;10.908;2023-05-07T08:17:05;6.00;;;5.60;;
2750;SDS011;1383;48.362;10.908;2023-05-07T08:19:32;7.17;;;6.57;;
2750;SDS011;1383;48.362;10.908;2023-05-07T08:21:59;6.20;;;5.43;;
2750;SDS011;1383;48.362;10.908;2023-05-07T08:24:26;5.80;;;5.30;;
2750;SDS011;1383;48.362;10.908;2023-05-07T08:26:53;5.30;;;4.80;;
2750;SDS011;1383;48.362;10.908;2023-05-07T08:29:20;5.33;;;4.93;;
2750;SDS011;1383;48.362;10.908;2023-05-07T08:31:46;6.73;;;5.97;;
2750;SDS011;1383;48.362;10.908;2023-05-07T08:34:21;4.83;;;4.53;;
2750;SDS011;1383;48.362;10.908;2023-05-07T08:36:48;8.23;;;6.07;;
2750;SDS011;1383;48.362;10.908;2023-05-07T08:39:15;6.73;;;5.77;;
2750;SDS011;1383;48.362;10.908;2023-05-07T08:41:44;5.07;;;4.63;;
2750;SDS011;1383;48.362;10.908;2023-05-07T08:44:12;5.20;;;4.70;;
2750;SDS011;1383;48.362;10.908;2023-05-07T08:46:42;4.80;;;4.00;;
2750;SDS011;1383;48.362;10.908;2023-05-07T08:49:13;4.10;;;3.70;;
2750;SDS011;1383;48.362;10.908;2023-05-07T08:51:42;6.10;;;3.93;;
2750;SDS011;1383;48.362;10.908;2023-05-07T08:54:08;4.07;;;3.70;;
2750;SDS011;1383;48.362;10.908;2023-05-07T08:56:37;5.20;;;4.70;;
2750;SDS011;1383;48.362;10.908;2023-05-07T08:59:03;6.27;;;5.53;;
2750;SDS011;1383;48.362;10.908;2023-05-07T09:01:31;5.60;;;5.10;;
2750;SDS011;1383;48.362;10.908;2023-05-07T09:03:58;5.30;;;4.90;;
2750;SDS011;1383;48.362;10.908;2023-05-07T09:06:25;6.20;;;5.63;;
2750;SDS011;1383;48.362;10.908;2023-05-07T09:08:53;6.43;;;5.93;;
2750;SDS011;1383;48.362;10.908;2023-05-07T09:11:23;6.57;;;6.07;;
2750;SDS011;1383;48.362;10.908;2023-05-07T09:13:54;5.80;;;5.27;;
2750;SDS011;1383;48.362;10.908;2023-05-07T09:16:22;5.87;;;5.37;;
2750;SDS011;1383;48.362;10.908;2023-05-07T09:18:53;5.97;;;5.37;;
2750;SDS011;1383;48.362;10.908;2023-05-07T09:21:21;5.23;;;4.83;;
2750;SDS011;1383;48.362;10.908;2023-05-07T09:23:53;5.10;;;4.70;;
2750;SDS011;1383;48.362;10.908;2023-05-07T09:26:21;5.97;;;5.40;;
2750;SDS011;1383;48.362;10.908;2023-05-07T09:28:48;4.90;;;4.50;;
2750;SDS011;1383;48.362;10.908;2023-05-07T09:31:15;5.00;;;4.43;;
2750;SDS011;1383;48.362;10.908;2023-05-07T09:33:46;3.70;;;3.50;;
2750;SDS011;1383;48.362;10.908;2023-05-07T09:36:13;3.37;;;3.10;;
2750;SDS011;1383;48.362;10.908;2023-05-07T09:38:40;4.40;;;3.53;;
2750;SDS011;1383;48.362;10.908;2023-05-07T09:41:11;4.13;;;3.73;;
2750;SDS011;1383;48.362;10.908;2023-05-07T09:43:39;3.70;;;3.13;;
2750;SDS011;1383;48.362;10.908;2023-05-07T09:46:13;3.60;;;3.40;;
2750;SDS011;1383;48.362;10.908;2023-05-07T09:48:42;3.50;;;3.20;;
2750;SDS011;1383;48.362;10.908;2023-05-07T09:51:11;4.03;;;3.60;;
2750;SDS011;1383;48.362;10.908;2023-05-07T09:53:50;4.30;;;2.97;;
2750;SDS011;1383;48.362;10.908;2023-05-07T09:56:19;2.67;;;2.50;;
2750;SDS011;1383;48.362;10.908;2023-05-07T09:58:47;2.17;;;2.03;;
2750;SDS011;1383;48.362;10.908;2023-05-07T10:01:15;2.50;;;2.30;;
2750;SDS011;1383;48.362;10.908;2023-05-07T10:03:45;6.43;;;2.27;;
2750;SDS011;1383;48.362;10.908;2023-05-07T10:06:13;3.30;;;1.80;;
2750;SDS011;1383;48.362;10.908;2023-05-07T10:08:41;2.10;;;1.70;;
2750;SDS011;1383;48.362;10.908;2023-05-07T10:11:09;2.10;;;2.00;;
2750;SDS011;1383;48.362;10.908;2023-05-07T10:13:36;3.13;;;1.90;;
2750;SDS011;1383;48.362;10.908;2023-05-07T10:16:04;1.50;;;1.40;;
2750;SDS011;1383;48.362;10.908;2023-05-07T10:18:31;1.90;;;1.80;;
2750;SDS011;1383;48.362;10.908;2023-05-07T10:21:02;2.63;;;2.40;;
2750;SDS011;1383;48.362;10.908;2023-05-07T10:23:49;1.53;;;1.43;;
2750;SDS011;1383;48.362;10.908;2023-05-07T10:26:44;5.23;;;2.47;;
2750;SDS011;1383;48.362;10.908;2023-05-07T10:32:08;3.97;;;3.50;;
2750;SDS011;1383;48.362;10.908;2023-05-07T10:34:56;2.33;;;1.73;;
2750;SDS011;1383;48.362;10.908;2023-05-07T10:37:27;2.67;;;1.50;;
2750;SDS011;1383;48.362;10.908;2023-05-07T10:39:55;3.17;;;1.73;;
2750;SDS011;1383;48.362;10.908;2023-05-07T10:42:23;1.67;;;1.53;;
2750;SDS011;1383;48.362;10.908;2023-05-07T10:44:50;2.10;;;1.47;;
2750;SDS011;1383;48.362;10.908;2023-05-07T10:47:17;2.13;;;2.03;;
2750;SDS011;1383;48.362;10.908;2023-05-07T10:54:46;1.90;;;1.80;;
2750;SDS011;1383;48.362;10.908;2023-05-07T11:00:00;1.80;;;1.70;;
2750;SDS011;1383;48.362;10.908;2023-05-07T11:05:29;2.30;;;1.73;;
2750;SDS011;1383;48.362;10.908;2023-05-07T11:08:02;1.77;;;1.20;;
2750;SDS011;1383;48.362;10.908;2023-05-07T11:16:22;2.77;;;2.00;;
2750;SDS011;1383;48.362;10.908;2023-05-07T11:18:51;2.10;;;1.93;;
2750;SDS011;1383;48.362;10.908;2023-05-07T11:21:35;2.60;;;2.03;;
2750;SDS011;1383;48.362;10.908;2023-05-07T11:24:07;2.30;;;1.53;;
2750;SDS011;1383;48.362;10.908;2023-05-07T11:26:48;1.50;;;1.40;;
2750;SDS011;1383;48.362;10.908;2023-05-07T11:29:17;1.63;;;1.53;;
2750;SDS011;1383;48.362;10.908;2023-05-07T11:31:51;2.97;;;2.70;;
2750;SDS011;1383;48.362;10.908;2023-05-07T11:34:23;2.70;;;1.80;;
2750;SDS011;1383;48.362;10.908;2023-05-07T11:36:51;2.10;;;1.90;;
2750;SDS011;1383;48.362;10.908;2023-05-07T11:39:26;2.03;;;1.57;;
2750;SDS011;1383;48.362;10.908;2023-05-07T11:41:54;2.50;;;1.87;;
2750;SDS011;1383;48.362;10.908;2023-05-07T11:44:21;2.50;;;2.30;;
2750;SDS011;1383;48.362;10.908;2023-05-07T11:46:48;1.70;;;1.60;;
2750;SDS011;1383;48.362;10.908;2023-05-07T11:49:15;1.90;;;1.80;;
2750;SDS011;1383;48.362;10.908;2023-05-07T11:51:42;4.03;;;2.27;;
2750;SDS011;1383;48.362;10.908;2023-05-07T11:54:09;1.80;;;1.47;;
2750;SDS011;1383;48.362;10.908;2023-05-07T11:56:37;2.03;;;1.83;;
2750;SDS011;1383;48.362;10.908;2023-05-07T11:59:05;4.63;;;1.97;;
2750;SDS011;1383;48.362;10.908;2023-05-07T12:01:34;5.43;;;2.30;;
2750;SDS011;1383;48.362;10.908;2023-05-07T12:04:02;2.50;;;1.87;;
2750;SDS011;1383;48.362;10.908;2023-05-07T12:06:30;1.90;;;1.80;;
2750;SDS011;1383;48.362;10.908;2023-05-07T12:08:57;1.87;;;1.70;;
2750;SDS011;1383;48.362;10.908;2023-05-07T12:11:25;1.93;;;1.83;;
2750;SDS011;1383;48.362;10.908;2023-05-07T12:13:53;3.77;;;2.30;;
2750;SDS011;1383;48.362;10.908;2023-05-07T12:16:24;2.30;;;2.10;;
2750;SDS011;1383;48.362;10.908;2023-05-07T12:18:52;4.10;;;3.07;;
2750;SDS011;1383;48.362;10.908;2023-05-07T12:21:21;3.43;;;2.37;;
2750;SDS011;1383;48.362;10.908;2023-05-07T12:23:49;2.97;;;2.77;;
2750;SDS011;1383;48.362;10.908;2023-05-07T12:26:16;2.57;;;2.37;;
2750;SDS011;1383;48.362;10.908;2023-05-07T12:28:45;2.53;;;2.33;;
2750;SDS011;1383;48.362;10.908;2023-05-07T12:31:13;2.30;;;2.10;;
2750;SDS011;1383;48.362;10.908;2023-05-07T12:33:41;4.63;;;2.20;;
2750;SDS011;1383;48.362;10.908;2023-05-07T12:36:08;2.63;;;2.30;;
2750;SDS011;1383;48.362;10.908;2023-05-07T12:38:38;1.90;;;1.80;;
2750;SDS011;1383;48.362;10.908;2023-05-07T12:41:07;3.20;;;1.97;;
2750;SDS011;1383;48.362;10.908;2023-05-07T12:43:36;2.90;;;2.60;;
2750;SDS011;1383;48.362;10.908;2023-05-07T12:46:04;2.63;;;2.43;;
2750;SDS011;1383;48.362;10.908;2023-05-07T12:48:33;2.30;;;2.10;;
2750;SDS011;1383;48.362;10.908;2023-05-07T12:51:02;2.63;;;2.43;;
2750;SDS011;1383;48.362;10.908;2023-05-07T12:53:31;2.33;;;2.13;;
2750;SDS011;1383;48.362;10.908;2023-05-07T12:55:58;2.20;;;2.10;;
2750;SDS011;1383;48.362;10.908;2023-05-07T13:00:53;2.30;;;2.13;;
2750;SDS011;1383;48.362;10.908;2023-05-07T13:03:29;2.50;;;2.13;;
2750;SDS011;1383;48.362;10.908;2023-05-07T13:05:59;2.70;;;2.43;;
2750;SDS011;1383;48.362;10.908;2023-05-07T13:08:35;2.37;;;2.00;;
2750;SDS011;1383;48.362;10.908;2023-05-07T13:11:07;2.80;;;2.60;;
2750;SDS011;1383;48.362;10.908;2023-05-07T13:13:35;2.93;;;2.20;;
2750;SDS011;1383;48.362;10.908;2023-05-07T13:16:03;3.80;;;2.73;;
2750;SDS011;1383;48.362;10.908;2023-05-07T13:18:32;3.57;;;2.17;;
2750;SDS011;1383;48.362;10.908;2023-05-07T13:21:00;3.47;;;2.93;;
2750;SDS011;1383;48.362;10.908;2023-05-07T13:23:27;2.60;;;2.40;;
2750;SDS011;1383;48.362;10.908;2023-05-07T13:25:55;3.50;;;2.90;;
2750;SDS011;1383;48.362;10.908;2023-05-07T13:28:25;2.17;;;2.00;;
2750;SDS011;1383;48.362;10.908;2023-05-07T13:30:52;4.83;;;2.03;;
2750;SDS011;1383;48.362;10.908;2023-05-07T13:33:21;2.67;;;2.47;;
2750;SDS011;1383;48.362;10.908;2023-05-07T13:35:47;2.13;;;1.93;;
2750;SDS011;1383;48.362;10.908;2023-05-07T13:38:14;2.40;;;2.10;;
2750;SDS011;1383;48.362;10.908;2023-05-07T13:40:42;3.30;;;3.00;;
2750;SDS011;1383;48.362;10.908;2023-05-07T13:43:09;2.50;;;2.30;;
2750;SDS011;1383;48.362;10.908;2023-05-07T13:45:36;2.53;;;1.90;;
2750;SDS011;1383;48.362;10.908;2023-05-07T13:48:04;2.20;;;2.00;;
2750;SDS011;1383;48.362;10.908;2023-05-07T13:50:31;3.37;;;3.07;;
2750;SDS011;1383;48.362;10.908;2023-05-07T13:52:58;3.00;;;2.80;;
2750;SDS011;1383;48.362;10.908;2023-05-07T13:55:24;3.33;;;2.83;;
2750;SDS011;1383;48.362;10.908;2023-05-07T13:57:59;3.83;;;2.57;;
2750;SDS011;1383;48.362;10.908;2023-05-07T14:00:27;2.93;;;2.10;;
2750;SDS011;1383;48.362;10.908;2023-05-07T14:02:55;3.73;;;2.53;;
2750;SDS011;1383;48.362;10.908;2023-05-07T14:05:22;2.60;;;2.40;;
2750;SDS011;1383;48.362;10.908;2023-05-07T14:07:51;4.60;;;2.53;;
2750;SDS011;1383;48.362;10.908;2023-05-07T14:10:18;2.30;;;2.20;;
2750;SDS011;1383;48.362;10.908;2023-05-07T14:12:45;2.93;;;2.60;;
2750;SDS011;1383;48.362;10.908;2023-05-07T14:15:13;2.63;;;2.43;;
2750;SDS011;1383;48.362;10.908;2023-05-07T14:17:40;2.20;;;2.10;;
2750;SDS011;1383;48.362;10.908;2023-05-07T14:20:07;2.57;;;2.37;;
2750;SDS011;1383;48.362;10.908;2023-05-07T14:22:35;2.93;;;2.70;;
2750;SDS011;1383;48.362;10.908;2023-05-07T14:25:02;2.67;;;2.43;;
2750;SDS011;1383;48.362;10.908;2023-05-07T14:27:32;2.80;;;2.43;;
2750;SDS011;1383;48.362;10.908;2023-05-07T14:29:59;3.27;;;2.90;;
2750;SDS011;1383;48.362;10.908;2023-05-07T14:32:26;3.03;;;2.10;;
2750;SDS011;1383;48.362;10.908;2023-05-07T14:34:53;2.80;;;2.60;;
2750;SDS011;1383;48.362;10.908;2023-05-07T14:37:20;2.43;;;2.23;;
2750;SDS011;1383;48.362;10.908;2023-05-07T14:39:47;3.53;;;2.20;;
2750;SDS011;1383;48.362;10.908;2023-05-07T14:42:16;2.83;;;2.53;;
2750;SDS011;1383;48.362;10.908;2023-05-07T14:44:43;3.00;;;2.80;;
2750;SDS011;1383;48.362;10.908;2023-05-07T14:47:12;3.00;;;2.80;;
2750;SDS011;1383;48.362;10.908;2023-05-07T14:49:39;5.33;;;2.80;;
2750;SDS011;1383;48.362;10.908;2023-05-07T14:52:07;2.43;;;2.23;;
2750;SDS011;1383;48.362;10.908;2023-05-07T14:54:36;2.97;;;2.67;;
2750;SDS011;1383;48.362;10.908;2023-05-07T14:57:05;3.97;;;3.00;;
2750;SDS011;1383;48.362;10.908;2023-05-07T14:59:32;2.83;;;2.47;;
2750;SDS011;1383;48.362;10.908;2023-05-07T15:02:00;2.43;;;2.30;;
2750;SDS011;1383;48.362;10.908;2023-05-07T15:04:31;2.87;;;2.67;;
2750;SDS011;1383;48.362;10.908;2023-05-07T15:06:58;2.50;;;2.27;;
2750;SDS011;1383;48.362;10.908;2023-05-07T15:09:25;3.00;;;2.37;;
2750;SDS011;1383;48.362;10.908;2023-05-07T15:11:52;2.40;;;2.20;;
2750;SDS011;1383;48.362;10.908;2023-05-07T15:14:18;2.90;;;2.67;;
2750;SDS011;1383;48.362;10.908;2023-05-07T15:16:48;2.80;;;2.60;;
2750;SDS011;1383;48.362;10.908;2023-05-07T15:19:15;2.53;;;2.33;;
2750;SDS011;1383;48.362;10.908;2023-05-07T15:21:43;3.90;;;2.90;;
2750;SDS011;1383;48.362;10.908;2023-05-07T15:24:10;2.10;;;1.97;;
2750;SDS011;1383;48.362;10.908;2023-05-07T15:26:36;2.27;;;2.07;;
2750;SDS011;1383;48.362;10.908;2023-05-07T15:29:03;2.47;;;2.27;;